sensor_id;sensor_type;location;lat;lon;timestamp;P1;durP1;ratioP1;P2;durP2;ratioP2
75426;SDS011;64007;50.632;13.700;2023-03-01T00:01:23;14.43;;;7.20;;
75426;SDS011;64007;50.632;13.700;2023-03-01T00:03:51;12.10;;;6.20;;
75426;SDS011;64007;50.632;13.700;2023-03-01T00:06:18;14.07;;;6.88;;
75426;SDS011;64007;50.632;13.700;2023-03-01T00:08:44;15.60;;;6.53;;
75426;SDS011;64007;50.632;13.700;2023-03-01T00:11:17;17.17;;;7.25;;
75426;SDS011;64007;50.632;13.700;2023-03-01T00:13:48;14.90;;;7.63;;
75426;SDS011;64007;50.632;13.700;2023-03-01T00:16:17;16.27;;;8.05;;
75426;SDS011;64007;50.632;13.700;2023-03-01T00:18:46;21.10;;;7.25;;
75426;SDS011;64007;50.632;13.700;2023-03-01T00:21:11;17.08;;;7.95;;
75426;SDS011;64007;50.632;13.700;2023-03-01T00:23:37;16.95;;;7.38;;
75426;SDS011;64007;50.632;13.700;2023-03-01T00:26:10;16.48;;;7.80;;
75426;SDS011;64007;50.632;13.700;2023-03-01T00:28:38;14.82;;;7.18;;
75426;SDS011;64007;50.632;13.700;2023-03-01T00:31:05;19.02;;;7.60;;
75426;SDS011;64007;50.632;13.700;2023-03-01T00:33:32;16.15;;;7.35;;
75426;SDS011;64007;50.632;13.700;2023-03-01T00:35:58;18.52;;;8.13;;
75426;SDS011;64007;50.632;13.700;2023-03-01T00:38:24;17.88;;;8.30;;
75426;SDS011;64007;50.632;13.700;2023-03-01T00:40:50;17.35;;;7.88;;
75426;SDS011;64007;50.632;13.700;2023-03-01T00:43:16;17.77;;;7.53;;
75426;SDS011;64007;50.632;13.700;2023-03-01T00:45:43;18.83;;;7.60;;
75426;SDS011;64007;50.632;13.700;2023-03-01T00:48:09;16.73;;;6.57;;
75426;SDS011;64007;50.632;13.700;2023-03-01T00:50:34;15.90;;;7.60;;
75426;SDS011;64007;50.632;13.700;2023-03-01T00:53:00;18.15;;;7.47;;
75426;SDS011;64007;50.632;13.700;2023-03-01T00:55:26;15.07;;;7.35;;
75426;SDS011;64007;50.632;13.700;2023-03-01T00:57:52;22.05;;;8.35;;
75426;SDS011;64007;50.632;13.700;2023-03-01T01:00:20;16.33;;;7.57;;
75426;SDS011;64007;50.632;13.700;2023-03-01T01:02:46;14.48;;;7.07;;
75426;SDS011;64007;50.632;13.700;2023-03-01T01:05:12;16.98;;;7.75;;
75426;SDS011;64007;50.632;13.700;2023-03-01T01:07:38;15.88;;;7.82;;
75426;SDS011;64007;50.632;13.700;2023-03-01T01:10:04;15.55;;;7.88;;
75426;SDS011;64007;50.632;13.700;2023-03-01T01:12:32;16.00;;;7.05;;
75426;SDS011;64007;50.632;13.700;2023-03-01T01:14:57;15.50;;;7.25;;
75426;SDS011;64007;50.632;13.700;2023-03-01T01:17:24;15.60;;;7.90;;
75426;SDS011;64007;50.632;13.700;2023-03-01T01:19:50;17.45;;;7.97;;
75426;SDS011;64007;50.632;13.700;2023-03-01T01:22:15;15.90;;;7.55;;
75426;SDS011;64007;50.632;13.700;2023-03-01T01:24:41;17.60;;;8.13;;
75426;SDS011;64007;50.632;13.700;2023-03-01T01:27:07;17.48;;;8.10;;
75426;SDS011;64007;50.632;13.700;2023-03-01T01:29:32;17.42;;;8.48;;
75426;SDS011;64007;50.632;13.700;2023-03-01T01:31:58;12.68;;;6.85;;
75426;SDS011;64007;50.632;13.700;2023-03-01T01:34:24;23.05;;;7.78;;
75426;SDS011;64007;50.632;13.700;2023-03-01T01:36:51;15.88;;;7.40;;
75426;SDS011;64007;50.632;13.700;2023-03-01T01:39:19;19.40;;;7.53;;
75426;SDS011;64007;50.632;13.700;2023-03-01T01:41:48;17.65;;;8.05;;
75426;SDS011;64007;50.632;13.700;2023-03-01T01:52:05;26.58;;;11.68;;
75426;SDS011;64007;50.632;13.700;2023-03-01T01:57:22;36.03;;;12.60;;
75426;SDS011;64007;50.632;13.700;2023-03-01T01:59:59;32.10;;;12.13;;
75426;SDS011;64007;50.632;13.700;2023-03-01T02:02:29;30.40;;;12.13;;
75426;SDS011;64007;50.632;13.700;2023-03-01T02:05:00;25.60;;;10.80;;
75426;SDS011;64007;50.632;13.700;2023-03-01T02:07:48;24.92;;;9.70;;
75426;SDS011;64007;50.632;13.700;2023-03-01T02:10:14;21.40;;;8.13;;
75426;SDS011;64007;50.632;13.700;2023-03-01T02:12:41;17.15;;;7.25;;
75426;SDS011;64007;50.632;13.700;2023-03-01T02:15:07;23.00;;;8.70;;
75426;SDS011;64007;50.632;13.700;2023-03-01T02:17:34;15.48;;;7.25;;
75426;SDS011;64007;50.632;13.700;2023-03-01T02:22:44;18.05;;;7.75;;
75426;SDS011;64007;50.632;13.700;2023-03-01T02:30:36;15.25;;;7.93;;
75426;SDS011;64007;50.632;13.700;2023-03-01T02:33:03;16.02;;;7.68;;
75426;SDS011;64007;50.632;13.700;2023-03-01T02:35:38;16.20;;;7.38;;
75426;SDS011;64007;50.632;13.700;2023-03-01T02:38:06;16.20;;;7.95;;
75426;SDS011;64007;50.632;13.700;2023-03-01T02:40:34;16.80;;;8.63;;
75426;SDS011;64007;50.632;13.700;2023-03-01T02:43:01;20.10;;;8.48;;
75426;SDS011;64007;50.632;13.700;2023-03-01T02:45:33;16.63;;;8.23;;
75426;SDS011;64007;50.632;13.700;2023-03-01T02:47:59;18.98;;;8.65;;
75426;SDS011;64007;50.632;13.700;2023-03-01T02:53:08;14.45;;;7.65;;
75426;SDS011;64007;50.632;13.700;2023-03-01T02:55:41;19.08;;;8.77;;
75426;SDS011;64007;50.632;13.700;2023-03-01T02:58:07;19.55;;;8.50;;
75426;SDS011;64007;50.632;13.700;2023-03-01T03:00:37;16.42;;;8.25;;
75426;SDS011;64007;50.632;13.700;2023-03-01T03:03:05;17.35;;;8.73;;
75426;SDS011;64007;50.632;13.700;2023-03-01T03:05:32;18.27;;;8.38;;
75426;SDS011;64007;50.632;13.700;2023-03-01T03:07:59;16.83;;;7.70;;
75426;SDS011;64007;50.632;13.700;2023-03-01T03:10:29;20.73;;;8.32;;
75426;SDS011;64007;50.632;13.700;2023-03-01T03:12:58;21.58;;;9.18;;
75426;SDS011;64007;50.632;13.700;2023-03-01T03:15:26;18.92;;;7.38;;
75426;SDS011;64007;50.632;13.700;2023-03-01T03:17:53;11.98;;;6.43;;
75426;SDS011;64007;50.632;13.700;2023-03-01T03:20:20;13.43;;;6.47;;
75426;SDS011;64007;50.632;13.700;2023-03-01T03:22:49;11.38;;;5.68;;
75426;SDS011;64007;50.632;13.700;2023-03-01T03:25:17;11.18;;;5.45;;
75426;SDS011;64007;50.632;13.700;2023-03-01T03:27:45;13.45;;;5.50;;
75426;SDS011;64007;50.632;13.700;2023-03-01T03:30:13;10.02;;;4.55;;
75426;SDS011;64007;50.632;13.700;2023-03-01T03:32:41;10.02;;;4.50;;
75426;SDS011;64007;50.632;13.700;2023-03-01T03:35:17;11.23;;;5.07;;
75426;SDS011;64007;50.632;13.700;2023-03-01T03:37:51;12.73;;;5.43;;
75426;SDS011;64007;50.632;13.700;2023-03-01T03:40:35;10.98;;;5.00;;
75426;SDS011;64007;50.632;13.700;2023-03-01T03:43:06;9.68;;;4.90;;
75426;SDS011;64007;50.632;13.700;2023-03-01T03:45:34;10.00;;;4.87;;
75426;SDS011;64007;50.632;13.700;2023-03-01T03:48:02;9.00;;;4.68;;
75426;SDS011;64007;50.632;13.700;2023-03-01T03:50:28;8.55;;;3.90;;
75426;SDS011;64007;50.632;13.700;2023-03-01T03:52:54;9.55;;;4.15;;
75426;SDS011;64007;50.632;13.700;2023-03-01T03:55:20;10.18;;;5.07;;
75426;SDS011;64007;50.632;13.700;2023-03-01T03:57:46;11.18;;;5.10;;
75426;SDS011;64007;50.632;13.700;2023-03-01T04:00:18;11.65;;;5.72;;
75426;SDS011;64007;50.632;13.700;2023-03-01T04:02:46;16.75;;;6.30;;
75426;SDS011;64007;50.632;13.700;2023-03-01T04:05:14;10.73;;;5.63;;
75426;SDS011;64007;50.632;13.700;2023-03-01T04:07:42;13.57;;;6.22;;
75426;SDS011;64007;50.632;13.700;2023-03-01T04:10:09;12.52;;;6.38;;
75426;SDS011;64007;50.632;13.700;2023-03-01T04:12:37;13.23;;;6.40;;
75426;SDS011;64007;50.632;13.700;2023-03-01T04:15:04;13.57;;;6.40;;
75426;SDS011;64007;50.632;13.700;2023-03-01T04:17:41;15.40;;;5.70;;
75426;SDS011;64007;50.632;13.700;2023-03-01T04:20:09;15.63;;;6.63;;
75426;SDS011;64007;50.632;13.700;2023-03-01T04:22:37;13.70;;;6.07;;
75426;SDS011;64007;50.632;13.700;2023-03-01T04:25:03;15.07;;;6.32;;
75426;SDS011;64007;50.632;13.700;2023-03-01T04:27:34;13.55;;;7.05;;
75426;SDS011;64007;50.632;13.700;2023-03-01T04:30:01;17.10;;;7.28;;
75426;SDS011;64007;50.632;13.700;2023-03-01T04:32:30;14.68;;;7.32;;
75426;SDS011;64007;50.632;13.700;2023-03-01T04:34:56;16.85;;;7.53;;
75426;SDS011;64007;50.632;13.700;2023-03-01T04:37:22;12.07;;;6.65;;
75426;SDS011;64007;50.632;13.700;2023-03-01T04:39:49;14.43;;;7.28;;
75426;SDS011;64007;50.632;13.700;2023-03-01T04:42:15;13.18;;;7.22;;
75426;SDS011;64007;50.632;13.700;2023-03-01T04:44:42;13.60;;;7.22;;
75426;SDS011;64007;50.632;13.700;2023-03-01T04:47:08;17.42;;;7.13;;
75426;SDS011;64007;50.632;13.700;2023-03-01T04:49:34;15.18;;;6.45;;
75426;SDS011;64007;50.632;13.700;2023-03-01T04:52:00;12.77;;;6.72;;
75426;SDS011;64007;50.632;13.700;2023-03-01T04:54:29;13.23;;;6.18;;
75426;SDS011;64007;50.632;13.700;2023-03-01T04:56:58;13.52;;;6.22;;
75426;SDS011;64007;50.632;13.700;2023-03-01T04:59:24;13.65;;;6.13;;
75426;SDS011;64007;50.632;13.700;2023-03-01T05:01:51;12.70;;;6.07;;
75426;SDS011;64007;50.632;13.700;2023-03-01T05:04:20;10.20;;;6.00;;
75426;SDS011;64007;50.632;13.700;2023-03-01T05:06:47;11.32;;;5.35;;
75426;SDS011;64007;50.632;13.700;2023-03-01T05:09:12;11.88;;;5.60;;
75426;SDS011;64007;50.632;13.700;2023-03-01T05:11:38;12.10;;;5.03;;
75426;SDS011;64007;50.632;13.700;2023-03-01T05:14:04;12.50;;;5.03;;
75426;SDS011;64007;50.632;13.700;2023-03-01T05:16:32;12.23;;;5.20;;
75426;SDS011;64007;50.632;13.700;2023-03-01T05:18:58;11.43;;;5.15;;
75426;SDS011;64007;50.632;13.700;2023-03-01T05:21:25;9.07;;;4.68;;
75426;SDS011;64007;50.632;13.700;2023-03-01T05:23:51;14.10;;;5.43;;
75426;SDS011;64007;50.632;13.700;2023-03-01T05:26:18;13.57;;;6.28;;
75426;SDS011;64007;50.632;13.700;2023-03-01T05:28:46;12.45;;;5.50;;
75426;SDS011;64007;50.632;13.700;2023-03-01T05:31:13;13.85;;;6.22;;
75426;SDS011;64007;50.632;13.700;2023-03-01T05:33:39;14.90;;;5.78;;
75426;SDS011;64007;50.632;13.700;2023-03-01T05:36:07;14.63;;;5.97;;
75426;SDS011;64007;50.632;13.700;2023-03-01T05:38:34;13.48;;;5.75;;
75426;SDS011;64007;50.632;13.700;2023-03-01T05:41:01;25.80;;;6.43;;
75426;SDS011;64007;50.632;13.700;2023-03-01T05:43:29;17.63;;;6.72;;
75426;SDS011;64007;50.632;13.700;2023-03-01T05:45:57;14.10;;;5.88;;
75426;SDS011;64007;50.632;13.700;2023-03-01T05:48:22;17.38;;;6.22;;
75426;SDS011;64007;50.632;13.700;2023-03-01T05:50:48;13.50;;;6.75;;
75426;SDS011;64007;50.632;13.700;2023-03-01T05:53:19;12.55;;;6.15;;
75426;SDS011;64007;50.632;13.700;2023-03-01T05:55:48;13.73;;;6.63;;
75426;SDS011;64007;50.632;13.700;2023-03-01T05:58:17;15.30;;;6.25;;
75426;SDS011;64007;50.632;13.700;2023-03-01T06:00:46;16.30;;;6.18;;
75426;SDS011;64007;50.632;13.700;2023-03-01T06:03:14;19.42;;;6.45;;
75426;SDS011;64007;50.632;13.700;2023-03-01T06:05:41;16.73;;;7.35;;
75426;SDS011;64007;50.632;13.700;2023-03-01T06:08:09;13.45;;;6.43;;
75426;SDS011;64007;50.632;13.700;2023-03-01T06:10:35;19.23;;;7.60;;
75426;SDS011;64007;50.632;13.700;2023-03-01T06:13:02;13.27;;;6.82;;
75426;SDS011;64007;50.632;13.700;2023-03-01T06:15:27;15.48;;;7.03;;
75426;SDS011;64007;50.632;13.700;2023-03-01T06:17:54;17.85;;;7.68;;
75426;SDS011;64007;50.632;13.700;2023-03-01T06:20:23;23.33;;;9.05;;
75426;SDS011;64007;50.632;13.700;2023-03-01T06:22:50;15.38;;;7.80;;
75426;SDS011;64007;50.632;13.700;2023-03-01T06:25:17;17.60;;;7.30;;
75426;SDS011;64007;50.632;13.700;2023-03-01T06:27:44;17.08;;;8.07;;
75426;SDS011;64007;50.632;13.700;2023-03-01T06:30:11;18.77;;;8.70;;
75426;SDS011;64007;50.632;13.700;2023-03-01T06:32:39;17.70;;;7.80;;
75426;SDS011;64007;50.632;13.700;2023-03-01T06:35:09;14.88;;;7.38;;
75426;SDS011;64007;50.632;13.700;2023-03-01T06:37:35;15.88;;;7.25;;
75426;SDS011;64007;50.632;13.700;2023-03-01T06:40:02;20.33;;;8.32;;
75426;SDS011;64007;50.632;13.700;2023-03-01T06:42:36;17.77;;;7.68;;
75426;SDS011;64007;50.632;13.700;2023-03-01T06:45:04;16.83;;;7.40;;
75426;SDS011;64007;50.632;13.700;2023-03-01T06:47:31;18.42;;;7.07;;
75426;SDS011;64007;50.632;13.700;2023-03-01T06:50:01;19.50;;;7.97;;
75426;SDS011;64007;50.632;13.700;2023-03-01T06:52:27;21.05;;;9.55;;
75426;SDS011;64007;50.632;13.700;2023-03-01T06:54:54;21.08;;;8.88;;
75426;SDS011;64007;50.632;13.700;2023-03-01T06:57:19;20.73;;;9.48;;
75426;SDS011;64007;50.632;13.700;2023-03-01T06:59:46;19.15;;;9.10;;
75426;SDS011;64007;50.632;13.700;2023-03-01T07:02:12;18.50;;;9.52;;
75426;SDS011;64007;50.632;13.700;2023-03-01T07:04:39;22.65;;;9.25;;
75426;SDS011;64007;50.632;13.700;2023-03-01T07:07:05;25.45;;;9.68;;
75426;SDS011;64007;50.632;13.700;2023-03-01T07:09:31;22.50;;;9.23;;
75426;SDS011;64007;50.632;13.700;2023-03-01T07:11:56;24.98;;;10.10;;
75426;SDS011;64007;50.632;13.700;2023-03-01T07:14:23;26.25;;;9.93;;
75426;SDS011;64007;50.632;13.700;2023-03-01T07:16:52;21.48;;;10.00;;
75426;SDS011;64007;50.632;13.700;2023-03-01T07:19:18;28.83;;;11.00;;
75426;SDS011;64007;50.632;13.700;2023-03-01T07:21:47;24.88;;;11.38;;
75426;SDS011;64007;50.632;13.700;2023-03-01T07:24:13;25.52;;;11.90;;
75426;SDS011;64007;50.632;13.700;2023-03-01T07:26:39;25.00;;;11.75;;
75426;SDS011;64007;50.632;13.700;2023-03-01T07:29:06;29.90;;;12.77;;
75426;SDS011;64007;50.632;13.700;2023-03-01T07:31:34;33.60;;;13.02;;
75426;SDS011;64007;50.632;13.700;2023-03-01T07:34:00;30.65;;;13.75;;
75426;SDS011;64007;50.632;13.700;2023-03-01T07:36:26;35.08;;;15.63;;
75426;SDS011;64007;50.632;13.700;2023-03-01T07:38:52;38.30;;;15.15;;
75426;SDS011;64007;50.632;13.700;2023-03-01T07:41:20;34.75;;;14.43;;
75426;SDS011;64007;50.632;13.700;2023-03-01T07:43:46;27.63;;;12.60;;
75426;SDS011;64007;50.632;13.700;2023-03-01T07:46:12;27.70;;;14.10;;
75426;SDS011;64007;50.632;13.700;2023-03-01T07:48:38;31.75;;;14.60;;
75426;SDS011;64007;50.632;13.700;2023-03-01T07:51:05;32.92;;;13.30;;
75426;SDS011;64007;50.632;13.700;2023-03-01T07:53:32;28.73;;;13.52;;
75426;SDS011;64007;50.632;13.700;2023-03-01T07:58:28;29.02;;;13.55;;
75426;SDS011;64007;50.632;13.700;2023-03-01T08:00:53;26.10;;;13.48;;
75426;SDS011;64007;50.632;13.700;2023-03-01T08:03:19;30.40;;;14.75;;
75426;SDS011;64007;50.632;13.700;2023-03-01T08:05:45;32.30;;;13.93;;
75426;SDS011;64007;50.632;13.700;2023-03-01T08:08:10;27.25;;;13.55;;
75426;SDS011;64007;50.632;13.700;2023-03-01T08:10:36;32.28;;;14.57;;
75426;SDS011;64007;50.632;13.700;2023-03-01T08:13:02;35.75;;;15.98;;
75426;SDS011;64007;50.632;13.700;2023-03-01T08:15:28;32.38;;;14.88;;
75426;SDS011;64007;50.632;13.700;2023-03-01T08:17:53;34.20;;;16.17;;
75426;SDS011;64007;50.632;13.700;2023-03-01T08:20:19;38.08;;;16.95;;
75426;SDS011;64007;50.632;13.700;2023-03-01T08:22:45;36.78;;;16.30;;
75426;SDS011;64007;50.632;13.700;2023-03-01T08:25:10;38.05;;;17.30;;
75426;SDS011;64007;50.632;13.700;2023-03-01T08:27:36;41.40;;;18.50;;
75426;SDS011;64007;50.632;13.700;2023-03-01T08:30:02;39.95;;;18.13;;
75426;SDS011;64007;50.632;13.700;2023-03-01T08:32:29;40.55;;;17.42;;
75426;SDS011;64007;50.632;13.700;2023-03-01T08:34:54;39.42;;;17.88;;
75426;SDS011;64007;50.632;13.700;2023-03-01T08:37:20;41.92;;;17.92;;
75426;SDS011;64007;50.632;13.700;2023-03-01T08:39:46;40.83;;;16.63;;
75426;SDS011;64007;50.632;13.700;2023-03-01T08:42:11;36.47;;;15.20;;
75426;SDS011;64007;50.632;13.700;2023-03-01T08:44:37;28.77;;;12.05;;
75426;SDS011;64007;50.632;13.700;2023-03-01T08:47:03;22.55;;;12.35;;
75426;SDS011;64007;50.632;13.700;2023-03-01T08:49:30;37.10;;;13.50;;
75426;SDS011;64007;50.632;13.700;2023-03-01T08:51:57;32.45;;;11.27;;
75426;SDS011;64007;50.632;13.700;2023-03-01T08:54:23;25.40;;;11.68;;
75426;SDS011;64007;50.632;13.700;2023-03-01T08:56:51;24.42;;;11.80;;
75426;SDS011;64007;50.632;13.700;2023-03-01T08:59:16;24.98;;;11.90;;
75426;SDS011;64007;50.632;13.700;2023-03-01T09:01:43;21.63;;;11.25;;
75426;SDS011;64007;50.632;13.700;2023-03-01T09:04:10;30.35;;;12.68;;
75426;SDS011;64007;50.632;13.700;2023-03-01T09:06:37;27.60;;;12.20;;
75426;SDS011;64007;50.632;13.700;2023-03-01T09:09:03;21.17;;;10.95;;
75426;SDS011;64007;50.632;13.700;2023-03-01T09:11:33;30.60;;;12.75;;
75426;SDS011;64007;50.632;13.700;2023-03-01T09:13:58;28.35;;;13.40;;
75426;SDS011;64007;50.632;13.700;2023-03-01T09:16:24;32.30;;;12.48;;
75426;SDS011;64007;50.632;13.700;2023-03-01T09:18:51;29.77;;;11.75;;
75426;SDS011;64007;50.632;13.700;2023-03-01T09:21:18;31.77;;;12.27;;
75426;SDS011;64007;50.632;13.700;2023-03-01T09:23:46;31.40;;;12.20;;
75426;SDS011;64007;50.632;13.700;2023-03-01T09:26:14;26.55;;;11.88;;
75426;SDS011;64007;50.632;13.700;2023-03-01T09:28:44;21.60;;;10.75;;
75426;SDS011;64007;50.632;13.700;2023-03-01T09:31:11;23.55;;;12.18;;
75426;SDS011;64007;50.632;13.700;2023-03-01T09:33:38;23.17;;;10.32;;
75426;SDS011;64007;50.632;13.700;2023-03-01T09:36:06;21.13;;;11.27;;
75426;SDS011;64007;50.632;13.700;2023-03-01T09:38:33;23.88;;;11.15;;
75426;SDS011;64007;50.632;13.700;2023-03-01T09:41:00;24.42;;;12.30;;
75426;SDS011;64007;50.632;13.700;2023-03-01T09:43:43;25.25;;;12.52;;
75426;SDS011;64007;50.632;13.700;2023-03-01T09:46:13;24.25;;;12.02;;
75426;SDS011;64007;50.632;13.700;2023-03-01T09:51:21;28.00;;;11.48;;
75426;SDS011;64007;50.632;13.700;2023-03-01T09:53:50;32.03;;;12.77;;
75426;SDS011;64007;50.632;13.700;2023-03-01T09:56:22;21.33;;;10.95;;
75426;SDS011;64007;50.632;13.700;2023-03-01T09:59:17;23.38;;;10.82;;
75426;SDS011;64007;50.632;13.700;2023-03-01T10:04:46;24.40;;;11.25;;
75426;SDS011;64007;50.632;13.700;2023-03-01T10:10:28;28.77;;;12.25;;
75426;SDS011;64007;50.632;13.700;2023-03-01T10:12:59;25.90;;;11.63;;
75426;SDS011;64007;50.632;13.700;2023-03-01T10:15:36;25.23;;;12.27;;
75426;SDS011;64007;50.632;13.700;2023-03-01T10:18:22;31.13;;;11.95;;
75426;SDS011;64007;50.632;13.700;2023-03-01T10:20:52;22.80;;;10.93;;
75426;SDS011;64007;50.632;13.700;2023-03-01T10:31:42;21.63;;;10.57;;
75426;SDS011;64007;50.632;13.700;2023-03-01T10:34:14;20.27;;;9.85;;
75426;SDS011;64007;50.632;13.700;2023-03-01T10:36:43;21.13;;;9.88;;
75426;SDS011;64007;50.632;13.700;2023-03-01T10:39:13;22.23;;;10.27;;
75426;SDS011;64007;50.632;13.700;2023-03-01T10:42:19;20.83;;;10.13;;
75426;SDS011;64007;50.632;13.700;2023-03-01T10:44:46;22.65;;;9.82;;
75426;SDS011;64007;50.632;13.700;2023-03-01T10:50:01;21.48;;;10.23;;
75426;SDS011;64007;50.632;13.700;2023-03-01T10:52:37;19.13;;;10.82;;
75426;SDS011;64007;50.632;13.700;2023-03-01T10:58:07;28.20;;;10.90;;
75426;SDS011;64007;50.632;13.700;2023-03-01T11:00:52;20.95;;;10.35;;
75426;SDS011;64007;50.632;13.700;2023-03-01T11:03:26;22.42;;;11.25;;
75426;SDS011;64007;50.632;13.700;2023-03-01T11:06:01;23.73;;;12.38;;
75426;SDS011;64007;50.632;13.700;2023-03-01T11:08:37;23.15;;;11.95;;
75426;SDS011;64007;50.632;13.700;2023-03-01T11:11:51;23.67;;;11.38;;
75426;SDS011;64007;50.632;13.700;2023-03-01T11:16:47;22.92;;;10.73;;
75426;SDS011;64007;50.632;13.700;2023-03-01T11:19:16;22.83;;;10.87;;
75426;SDS011;64007;50.632;13.700;2023-03-01T11:21:53;20.90;;;10.57;;
75426;SDS011;64007;50.632;13.700;2023-03-01T11:24:55;22.60;;;9.98;;
75426;SDS011;64007;50.632;13.700;2023-03-01T11:27:21;19.42;;;9.40;;
75426;SDS011;64007;50.632;13.700;2023-03-01T11:29:59;21.70;;;10.15;;
75426;SDS011;64007;50.632;13.700;2023-03-01T11:32:33;21.10;;;10.02;;
75426;SDS011;64007;50.632;13.700;2023-03-01T11:37:38;26.80;;;11.43;;
75426;SDS011;64007;50.632;13.700;2023-03-01T12:02:46;19.55;;;9.80;;
75426;SDS011;64007;50.632;13.700;2023-03-01T12:05:26;22.48;;;10.65;;
75426;SDS011;64007;50.632;13.700;2023-03-01T12:08:16;22.83;;;10.80;;
75426;SDS011;64007;50.632;13.700;2023-03-01T12:28:01;15.20;;;9.38;;
75426;SDS011;64007;50.632;13.700;2023-03-01T12:33:19;16.60;;;9.10;;
75426;SDS011;64007;50.632;13.700;2023-03-01T12:38:50;17.75;;;9.25;;
75426;SDS011;64007;50.632;13.700;2023-03-01T12:44:30;20.23;;;9.98;;
75426;SDS011;64007;50.632;13.700;2023-03-01T12:49:59;17.65;;;9.07;;
75426;SDS011;64007;50.632;13.700;2023-03-01T12:52:47;16.27;;;9.02;;
75426;SDS011;64007;50.632;13.700;2023-03-01T12:55:38;19.65;;;8.80;;
75426;SDS011;64007;50.632;13.700;2023-03-01T12:58:16;23.63;;;9.20;;
75426;SDS011;64007;50.632;13.700;2023-03-01T13:11:57;18.27;;;9.57;;
75426;SDS011;64007;50.632;13.700;2023-03-01T13:16:52;22.42;;;9.80;;
75426;SDS011;64007;50.632;13.700;2023-03-01T13:19:19;18.10;;;10.02;;
75426;SDS011;64007;50.632;13.700;2023-03-01T13:21:47;21.40;;;11.23;;
75426;SDS011;64007;50.632;13.700;2023-03-01T13:29:32;20.65;;;10.63;;
75426;SDS011;64007;50.632;13.700;2023-03-01T13:34:59;25.92;;;11.93;;
75426;SDS011;64007;50.632;13.700;2023-03-01T13:37:27;25.58;;;12.18;;
75426;SDS011;64007;50.632;13.700;2023-03-01T13:39:59;25.02;;;11.15;;
75426;SDS011;64007;50.632;13.700;2023-03-01T13:42:31;22.48;;;11.07;;
75426;SDS011;64007;50.632;13.700;2023-03-01T13:44:59;17.80;;;9.80;;
75426;SDS011;64007;50.632;13.700;2023-03-01T13:47:26;22.30;;;9.82;;
75426;SDS011;64007;50.632;13.700;2023-03-01T13:49:56;17.30;;;9.77;;
75426;SDS011;64007;50.632;13.700;2023-03-01T13:52:37;19.52;;;9.70;;
75426;SDS011;64007;50.632;13.700;2023-03-01T13:55:51;13.95;;;8.07;;
75426;SDS011;64007;50.632;13.700;2023-03-01T13:58:01;15.35;;;8.30;;
75426;SDS011;64007;50.632;13.700;2023-03-01T14:00:37;15.02;;;8.52;;
75426;SDS011;64007;50.632;13.700;2023-03-01T14:03:08;17.20;;;7.72;;
75426;SDS011;64007;50.632;13.700;2023-03-01T14:05:37;17.13;;;9.57;;
75426;SDS011;64007;50.632;13.700;2023-03-01T14:08:18;13.18;;;8.05;;
75426;SDS011;64007;50.632;13.700;2023-03-01T14:19:03;15.20;;;8.65;;
75426;SDS011;64007;50.632;13.700;2023-03-01T14:21:33;15.75;;;8.43;;
75426;SDS011;64007;50.632;13.700;2023-03-01T14:23:59;15.07;;;9.02;;
75426;SDS011;64007;50.632;13.700;2023-03-01T14:26:24;16.05;;;8.88;;
75426;SDS011;64007;50.632;13.700;2023-03-01T14:28:50;14.23;;;8.30;;
75426;SDS011;64007;50.632;13.700;2023-03-01T14:33:55;18.60;;;9.30;;
75426;SDS011;64007;50.632;13.700;2023-03-01T14:36:25;18.88;;;9.43;;
75426;SDS011;64007;50.632;13.700;2023-03-01T14:38:53;15.25;;;9.00;;
75426;SDS011;64007;50.632;13.700;2023-03-01T14:41:23;17.60;;;9.43;;
75426;SDS011;64007;50.632;13.700;2023-03-01T14:43:53;15.77;;;8.27;;
75426;SDS011;64007;50.632;13.700;2023-03-01T14:46:25;20.33;;;9.20;;
75426;SDS011;64007;50.632;13.700;2023-03-01T14:48:57;19.17;;;10.32;;
75426;SDS011;64007;50.632;13.700;2023-03-01T14:51:28;21.88;;;9.25;;
75426;SDS011;64007;50.632;13.700;2023-03-01T14:53:54;21.02;;;10.35;;
75426;SDS011;64007;50.632;13.700;2023-03-01T14:56:21;21.17;;;10.80;;
75426;SDS011;64007;50.632;13.700;2023-03-01T14:58:50;17.45;;;9.35;;
75426;SDS011;64007;50.632;13.700;2023-03-01T15:01:17;20.77;;;9.05;;
75426;SDS011;64007;50.632;13.700;2023-03-01T15:03:45;14.23;;;8.55;;
75426;SDS011;64007;50.632;13.700;2023-03-01T15:06:14;15.23;;;8.90;;
75426;SDS011;64007;50.632;13.700;2023-03-01T15:08:47;17.23;;;8.57;;
75426;SDS011;64007;50.632;13.700;2023-03-01T15:11:31;15.82;;;8.50;;
75426;SDS011;64007;50.632;13.700;2023-03-01T15:16:24;16.15;;;8.40;;
75426;SDS011;64007;50.632;13.700;2023-03-01T15:21:40;16.17;;;8.55;;
75426;SDS011;64007;50.632;13.700;2023-03-01T15:26:51;18.58;;;8.65;;
75426;SDS011;64007;50.632;13.700;2023-03-01T15:29:28;14.77;;;8.00;;
75426;SDS011;64007;50.632;13.700;2023-03-01T15:34:26;18.95;;;9.80;;
75426;SDS011;64007;50.632;13.700;2023-03-01T15:36:54;26.70;;;12.85;;
75426;SDS011;64007;50.632;13.700;2023-03-01T15:42:06;18.23;;;8.20;;
75426;SDS011;64007;50.632;13.700;2023-03-01T15:44:37;17.60;;;8.55;;
75426;SDS011;64007;50.632;13.700;2023-03-01T15:47:23;19.80;;;8.52;;
75426;SDS011;64007;50.632;13.700;2023-03-01T15:49:53;13.95;;;7.63;;
75426;SDS011;64007;50.632;13.700;2023-03-01T15:52:28;16.65;;;7.93;;
75426;SDS011;64007;50.632;13.700;2023-03-01T15:55:04;15.15;;;7.32;;
75426;SDS011;64007;50.632;13.700;2023-03-01T15:57:31;14.13;;;7.10;;
75426;SDS011;64007;50.632;13.700;2023-03-01T15:59:57;16.95;;;6.97;;
75426;SDS011;64007;50.632;13.700;2023-03-01T16:02:23;13.48;;;6.30;;
75426;SDS011;64007;50.632;13.700;2023-03-01T16:04:50;11.63;;;6.38;;
75426;SDS011;64007;50.632;13.700;2023-03-01T16:07:16;14.68;;;6.82;;
75426;SDS011;64007;50.632;13.700;2023-03-01T16:09:44;11.48;;;6.45;;
75426;SDS011;64007;50.632;13.700;2023-03-01T16:12:12;14.80;;;7.40;;
75426;SDS011;64007;50.632;13.700;2023-03-01T16:14:40;17.55;;;7.85;;
75426;SDS011;64007;50.632;13.700;2023-03-01T16:17:06;18.48;;;8.10;;
75426;SDS011;64007;50.632;13.700;2023-03-01T16:19:36;17.42;;;8.07;;
75426;SDS011;64007;50.632;13.700;2023-03-01T16:22:02;15.80;;;7.70;;
75426;SDS011;64007;50.632;13.700;2023-03-01T16:24:28;15.00;;;7.60;;
75426;SDS011;64007;50.632;13.700;2023-03-01T16:26:55;14.65;;;7.60;;
75426;SDS011;64007;50.632;13.700;2023-03-01T16:29:21;23.70;;;10.65;;
75426;SDS011;64007;50.632;13.700;2023-03-01T16:31:46;21.52;;;9.55;;
75426;SDS011;64007;50.632;13.700;2023-03-01T16:34:13;13.35;;;7.50;;
75426;SDS011;64007;50.632;13.700;2023-03-01T16:36:38;12.02;;;6.40;;
75426;SDS011;64007;50.632;13.700;2023-03-01T16:39:04;13.32;;;7.25;;
75426;SDS011;64007;50.632;13.700;2023-03-01T16:41:30;12.40;;;7.15;;
75426;SDS011;64007;50.632;13.700;2023-03-01T16:43:56;16.20;;;6.60;;
75426;SDS011;64007;50.632;13.700;2023-03-01T16:46:22;11.75;;;5.25;;
75426;SDS011;64007;50.632;13.700;2023-03-01T16:48:50;11.70;;;5.80;;
75426;SDS011;64007;50.632;13.700;2023-03-01T16:51:17;8.85;;;5.32;;
75426;SDS011;64007;50.632;13.700;2023-03-01T16:53:44;11.18;;;5.75;;
75426;SDS011;64007;50.632;13.700;2023-03-01T16:56:10;10.95;;;5.53;;
75426;SDS011;64007;50.632;13.700;2023-03-01T16:58:37;11.48;;;5.47;;